Latest METARs, TAFs and NOTAMs for DNAA


---------------------------------------------------------------------------
	(OBSERVATIONS)
DNAA 261300Z NIL=
DNAA 261200Z NIL=
DNAA 261100Z NIL=
---------------------------------------------------------------------------
	(TERMINAL AREA FORECAST)
DNAA 252140Z 2600/2706 19010KT 9999 TS FEW009 FEW020CB
    BECMG 2600/2602 CAVOK
    BECMG 2607/2609 23006KT BKN009
    BECMG 2612/2614 SCT014
    TEMPO 2614/2620 TS FEW021CB=
---------------------------------------------------------------------------
	(NOTAMS)


DNAA A00140/10 MAINTENANCE WORK IN PROGRESS AT THE INTERNATIONAL
    WING X PILOTS ARE ADVISED TO ADHERE STRICTLY TO ATC INSTRUCTIONS
    X 18 NOV 08:30 UNTIL 18 FEB 08:30 2011 ESTIMATED

---------------------------------------------------------------------------